createdAt,value
2023-04-15T00:00:58.197Z,97.90
2023-04-15T00:03:27.011Z,97.60
2023-04-15T00:05:55.041Z,97.80
2023-04-15T00:08:25.182Z,97.60
2023-04-15T00:10:53.308Z,97.50
2023-04-15T00:13:21.149Z,97.40
2023-04-15T00:15:49.380Z,96.90
2023-04-15T00:18:17.350Z,96.60
2023-04-15T00:20:48.550Z,96.70
2023-04-15T00:23:17.583Z,96.60
2023-04-15T00:25:45.294Z,96.70
2023-04-15T00:28:13.217Z,96.70
2023-04-15T00:30:41.900Z,96.70
2023-04-15T00:33:11.118Z,95.70
2023-04-15T00:35:39.103Z,94.70
2023-04-15T00:38:07.722Z,94.60
2023-04-15T00:40:35.927Z,94.40
2023-04-15T00:43:03.767Z,94.10
2023-04-15T00:45:32.526Z,93.90
2023-04-15T00:48:00.993Z,93.90
2023-04-15T00:50:28.844Z,93.60
2023-04-15T00:52:57.785Z,93.50
2023-04-15T00:55:26.799Z,94.00
2023-04-15T00:58:06.081Z,94.60
2023-04-15T01:00:34.520Z,94.30
2023-04-15T01:03:03.634Z,94.10
2023-04-15T01:05:32.033Z,93.70
2023-04-15T01:08:00.650Z,93.60
2023-04-15T01:10:29.868Z,94.10
2023-04-15T01:13:01.299Z,93.90
2023-04-15T01:15:30.244Z,93.80
2023-04-15T01:17:59.642Z,93.90
2023-04-15T01:20:27.758Z,94.30
2023-04-15T01:22:58.034Z,94.50
2023-04-15T01:25:29.573Z,94.80
2023-04-15T01:28:00.019Z,94.30
2023-04-15T01:30:32.680Z,94.30
2023-04-15T01:33:01.334Z,93.70
2023-04-15T01:35:37.613Z,93.30
2023-04-15T01:38:05.578Z,93.20
2023-04-15T01:40:34.041Z,93.30
2023-04-15T01:43:09.464Z,92.50
2023-04-15T01:45:39.843Z,92.40
2023-04-15T01:48:07.818Z,91.90
2023-04-15T01:50:37.882Z,92.30
2023-04-15T01:53:08.239Z,92.00
2023-04-15T01:55:52.018Z,91.70
2023-04-15T01:58:20.065Z,91.60
2023-04-15T02:00:49.363Z,91.70
2023-04-15T02:03:22.287Z,91.70
2023-04-15T02:05:51.805Z,91.50
2023-04-15T02:08:19.386Z,91.10
2023-04-15T02:10:47.622Z,90.70
2023-04-15T02:13:15.891Z,90.40
2023-04-15T02:15:43.594Z,90.10
2023-04-15T02:18:11.619Z,90.00
2023-04-15T02:20:39.227Z,90.20
2023-04-15T02:23:06.918Z,90.30
2023-04-15T02:25:35.643Z,90.30
2023-04-15T02:28:03.382Z,90.60
2023-04-15T02:30:31.663Z,90.20
2023-04-15T02:33:00.360Z,89.40
2023-04-15T02:35:28.595Z,87.70
2023-04-15T02:37:57.555Z,86.80
2023-04-15T02:40:29.764Z,88.50
2023-04-15T02:42:57.912Z,89.20
2023-04-15T02:45:26.000Z,89.40
2023-04-15T02:47:56.911Z,89.40
2023-04-15T02:50:24.599Z,89.00
2023-04-15T02:52:53.192Z,88.10
2023-04-15T02:55:21.998Z,88.10
2023-04-15T02:57:49.657Z,88.30
2023-04-15T03:00:19.467Z,88.50
2023-04-15T03:02:48.442Z,86.70
2023-04-15T03:05:18.347Z,87.40
2023-04-15T03:07:46.191Z,86.50
2023-04-15T03:10:18.859Z,85.30
2023-04-15T03:12:51.054Z,83.60
2023-04-15T03:15:20.504Z,82.80
2023-04-15T03:17:52.647Z,82.30
2023-04-15T03:20:20.465Z,80.40
2023-04-15T03:22:54.794Z,79.80
2023-04-15T03:25:22.740Z,79.50
2023-04-15T03:27:51.392Z,78.90
2023-04-15T03:30:21.308Z,78.20
2023-04-15T03:32:49.761Z,78.30
2023-04-15T03:35:18.397Z,78.40
2023-04-15T03:37:47.455Z,77.80
2023-04-15T03:40:16.504Z,77.20
2023-04-15T03:42:44.553Z,75.90
2023-04-15T03:45:14.670Z,75.60
2023-04-15T03:47:43.360Z,75.00
2023-04-15T03:50:11.181Z,74.10
2023-04-15T03:52:41.272Z,73.30
2023-04-15T03:55:09.724Z,74.40
2023-04-15T03:57:40.864Z,75.40
2023-04-15T04:00:11.212Z,75.50
2023-04-15T04:02:47.769Z,74.90
2023-04-15T04:05:18.067Z,73.00
2023-04-15T04:07:48.733Z,73.40
2023-04-15T04:10:16.544Z,73.30
2023-04-15T04:12:45.400Z,73.50
2023-04-15T04:15:15.633Z,72.50
2023-04-15T04:17:43.524Z,71.10
2023-04-15T04:20:11.581Z,71.00
2023-04-15T04:22:40.548Z,70.80
2023-04-15T04:25:09.880Z,70.70
2023-04-15T04:27:38.861Z,69.60
2023-04-15T04:30:06.706Z,69.10
2023-04-15T04:32:34.355Z,68.90
2023-04-15T04:35:02.898Z,68.10
2023-04-15T04:37:33.024Z,68.10
2023-04-15T04:40:02.790Z,67.60
2023-04-15T04:42:31.582Z,68.50
2023-04-15T04:44:59.058Z,68.50
2023-04-15T04:47:26.848Z,69.50
2023-04-15T04:49:56.241Z,69.50
2023-04-15T04:52:23.846Z,69.60
2023-04-15T04:54:51.606Z,68.70
2023-04-15T04:57:20.489Z,68.10
2023-04-15T04:59:48.074Z,68.40
2023-04-15T05:02:15.792Z,68.60
2023-04-15T05:04:43.687Z,68.40
2023-04-15T05:07:11.394Z,68.00
2023-04-15T05:09:39.331Z,67.60
2023-04-15T05:12:07.436Z,65.90
2023-04-15T05:14:38.214Z,65.70
2023-04-15T05:17:05.959Z,65.20
2023-04-15T05:19:33.976Z,63.50
2023-04-15T05:22:01.572Z,63.90
2023-04-15T05:24:29.228Z,63.60
2023-04-15T05:26:57.992Z,63.50
2023-04-15T05:29:25.676Z,64.90
2023-04-15T05:31:53.407Z,62.50
2023-04-15T05:34:21.813Z,62.70
2023-04-15T05:36:49.443Z,63.10
2023-04-15T05:39:17.199Z,61.60
2023-04-15T05:41:45.029Z,62.30
2023-04-15T05:44:12.664Z,62.80
2023-04-15T05:46:41.007Z,61.70
2023-04-15T05:49:09.674Z,61.80
2023-04-15T05:51:37.290Z,61.30
2023-04-15T05:54:05.268Z,61.10
2023-04-15T05:56:33.263Z,60.90
2023-04-15T05:59:01.157Z,61.00
2023-04-15T06:01:29.114Z,61.30
2023-04-15T06:03:57.824Z,61.30
2023-04-15T06:06:25.524Z,61.40
2023-04-15T06:08:53.526Z,59.90
2023-04-15T06:11:21.412Z,60.50
2023-04-15T06:13:49.025Z,59.60
2023-04-15T06:16:17.583Z,59.10
2023-04-15T06:18:47.327Z,60.00
2023-04-15T06:21:15.128Z,60.50
2023-04-15T06:23:42.856Z,60.20
2023-04-15T06:26:11.477Z,59.80
2023-04-15T06:28:39.151Z,59.20
2023-04-15T06:31:07.223Z,60.00
2023-04-15T06:33:35.935Z,59.70
2023-04-15T06:36:03.937Z,59.30
2023-04-15T06:38:31.869Z,58.60
2023-04-15T06:40:59.791Z,58.60
2023-04-15T06:43:27.447Z,58.00
2023-04-15T06:45:55.163Z,58.80
2023-04-15T06:48:23.077Z,58.90
2023-04-15T06:50:50.916Z,58.10
2023-04-15T06:53:18.784Z,58.40
2023-04-15T06:55:46.664Z,58.00
2023-04-15T06:58:14.383Z,58.20
2023-04-15T07:00:42.258Z,58.20
2023-04-15T07:03:10.232Z,57.80
2023-04-15T07:05:37.831Z,57.60
2023-04-15T07:08:05.530Z,57.30
2023-04-15T07:10:33.650Z,56.40
2023-04-15T07:13:01.600Z,56.70
2023-04-15T07:15:29.236Z,57.00
2023-04-15T07:17:59.104Z,56.90
2023-04-15T07:20:26.951Z,57.10
2023-04-15T07:22:54.839Z,56.20
2023-04-15T07:25:22.906Z,56.70
2023-04-15T07:27:50.501Z,56.90
2023-04-15T07:30:18.353Z,56.70
2023-04-15T07:32:46.933Z,56.50
2023-04-15T07:35:14.532Z,56.00
2023-04-15T07:37:42.415Z,55.60
2023-04-15T07:40:10.330Z,55.70
2023-04-15T07:42:39.391Z,55.90
2023-04-15T07:45:08.538Z,55.40
2023-04-15T07:47:36.505Z,55.10
2023-04-15T07:50:04.166Z,55.60
2023-04-15T07:52:32.101Z,56.20
2023-04-15T07:54:59.996Z,55.70
2023-04-15T07:57:27.693Z,54.50
2023-04-15T07:59:55.341Z,54.70
2023-04-15T08:02:23.603Z,55.00
2023-04-15T08:04:51.631Z,54.30
2023-04-15T08:07:19.432Z,54.20
2023-04-15T08:09:47.368Z,53.20
2023-04-15T08:12:15.101Z,53.10
2023-04-15T08:14:42.906Z,53.70
2023-04-15T08:17:11.583Z,53.80
2023-04-15T08:19:39.378Z,53.40
2023-04-15T08:22:07.045Z,53.50
2023-04-15T08:24:43.705Z,54.10
2023-04-15T08:27:11.882Z,54.60
2023-04-15T08:29:39.609Z,54.70
2023-04-15T08:32:07.913Z,55.00
2023-04-15T08:34:35.768Z,55.30
2023-04-15T08:37:03.421Z,55.70
2023-04-15T08:39:31.270Z,56.50
2023-04-15T08:41:59.036Z,56.70
2023-04-15T08:44:26.630Z,56.60
2023-04-15T08:46:54.653Z,57.00
2023-04-15T08:49:22.581Z,57.70
2023-04-15T08:51:50.272Z,58.00
2023-04-15T08:54:18.102Z,59.30
2023-04-15T08:56:47.162Z,59.20
2023-04-15T08:59:15.756Z,59.10
2023-04-15T09:01:43.590Z,59.20
2023-04-15T09:04:11.510Z,58.10
2023-04-15T09:06:39.247Z,59.30
2023-04-15T09:09:08.210Z,59.30
2023-04-15T09:11:35.838Z,59.40
2023-04-15T09:14:03.859Z,58.70
2023-04-15T09:16:33.258Z,59.20
2023-04-15T09:19:05.420Z,59.30
2023-04-15T09:21:34.576Z,59.90
2023-04-15T09:24:02.630Z,61.00
2023-04-15T09:26:31.117Z,60.70
2023-04-15T09:28:59.326Z,62.00
2023-04-15T09:31:27.190Z,62.50
2023-04-15T09:33:55.129Z,63.50
2023-04-15T09:36:22.987Z,64.10
2023-04-15T09:38:51.497Z,64.20
2023-04-15T09:41:19.696Z,64.70
2023-04-15T09:43:47.649Z,64.50
2023-04-15T09:46:15.529Z,65.00
2023-04-15T09:48:43.372Z,64.90
2023-04-15T09:51:11.572Z,65.00
2023-04-15T09:53:39.110Z,65.00
2023-04-15T09:56:06.846Z,65.00
2023-04-15T09:58:35.319Z,65.20
2023-04-15T10:01:03.384Z,65.00
2023-04-15T10:03:31.213Z,65.20
2023-04-15T10:05:59.261Z,64.60
2023-04-15T10:08:26.857Z,64.90
2023-04-15T10:10:54.592Z,65.10
2023-04-15T10:13:22.559Z,65.30
2023-04-15T10:15:50.242Z,65.30
2023-04-15T10:18:18.319Z,65.70
2023-04-15T10:20:46.033Z,66.10
2023-04-15T10:23:13.671Z,66.60
2023-04-15T10:25:41.359Z,67.20
2023-04-15T10:28:09.038Z,67.60
2023-04-15T10:30:36.805Z,67.80
2023-04-15T10:33:04.804Z,68.00
2023-04-15T10:35:33.274Z,67.60
2023-04-15T10:38:00.838Z,67.70
2023-04-15T10:40:29.561Z,68.20
2023-04-15T10:42:57.751Z,69.40
2023-04-15T10:45:25.397Z,69.80
2023-04-15T10:47:53.077Z,69.50
2023-04-15T10:50:20.854Z,69.70
2023-04-15T10:52:48.471Z,69.80
2023-04-15T10:55:16.333Z,69.50
2023-04-15T10:57:44.283Z,70.10
2023-04-15T11:00:11.902Z,70.10
2023-04-15T11:02:39.791Z,70.10
2023-04-15T11:05:08.012Z,70.30
2023-04-15T11:07:35.654Z,70.10
2023-04-15T11:10:03.311Z,69.70
2023-04-15T11:12:31.004Z,69.10
2023-04-15T11:14:58.687Z,69.30
2023-04-15T11:17:27.206Z,68.70
2023-04-15T11:20:00.575Z,68.70
2023-04-15T11:22:28.556Z,69.30
2023-04-15T11:24:56.125Z,68.40
2023-04-15T11:27:24.115Z,68.40
2023-04-15T11:29:51.827Z,68.70
2023-04-15T11:32:19.644Z,69.50
2023-04-15T11:34:47.455Z,70.80
2023-04-15T11:37:15.382Z,70.70
2023-04-15T11:39:42.963Z,71.40
2023-04-15T11:42:10.724Z,69.90
2023-04-15T11:44:38.641Z,66.50
2023-04-15T11:47:06.353Z,64.50
2023-04-15T11:49:34.126Z,63.10
2023-04-15T11:52:01.699Z,62.00
2023-04-15T11:54:29.501Z,62.50
2023-04-15T11:56:57.372Z,63.60
2023-04-15T11:59:28.183Z,63.90
2023-04-15T12:02:00.559Z,64.30
2023-04-15T12:04:28.456Z,64.80
2023-04-15T12:06:56.610Z,65.60
2023-04-15T12:09:25.097Z,65.80
2023-04-15T12:11:52.767Z,66.20
2023-04-15T12:14:20.940Z,66.50
2023-04-15T12:16:51.625Z,67.40
2023-04-15T12:19:20.189Z,67.00
2023-04-15T12:21:47.853Z,66.50
2023-04-15T12:24:16.000Z,66.10
2023-04-15T12:26:44.924Z,66.50
2023-04-15T12:29:12.848Z,66.60
2023-04-15T12:31:41.866Z,66.80
2023-04-15T12:34:09.924Z,66.70
2023-04-15T12:36:37.836Z,66.80
2023-04-15T12:39:06.335Z,66.90
2023-04-15T12:41:34.371Z,67.50
2023-04-15T12:44:03.470Z,67.80
2023-04-15T12:46:33.361Z,68.20
2023-04-15T12:49:01.035Z,68.70
2023-04-15T12:51:28.761Z,68.80
2023-04-15T12:53:56.730Z,68.30
2023-04-15T12:56:24.551Z,68.30
2023-04-15T12:58:52.313Z,68.30
2023-04-15T13:01:20.459Z,68.10
2023-04-15T13:03:48.386Z,68.50
2023-04-15T13:06:16.131Z,68.80
2023-04-15T13:08:57.212Z,69.30
2023-04-15T13:11:26.800Z,69.90
2023-04-15T13:13:54.816Z,70.40
2023-04-15T13:16:22.457Z,70.80
2023-04-15T13:18:50.121Z,71.10
2023-04-15T13:21:18.041Z,71.20
2023-04-15T13:23:45.728Z,71.70
2023-04-15T13:26:13.372Z,72.00
2023-04-15T13:28:41.285Z,71.80
2023-04-15T13:31:09.007Z,71.80
2023-04-15T13:33:38.000Z,71.80
2023-04-15T13:36:06.212Z,71.50
2023-04-15T13:38:34.953Z,71.40
2023-04-15T13:41:03.434Z,71.50
2023-04-15T13:43:31.577Z,71.40
2023-04-15T13:45:59.214Z,71.50
2023-04-15T13:48:27.436Z,71.50
2023-04-15T13:50:55.986Z,71.90
2023-04-15T13:53:33.817Z,72.60
2023-04-15T13:56:06.764Z,72.90
2023-04-15T13:58:34.445Z,72.20
2023-04-15T14:01:04.722Z,71.60
2023-04-15T14:03:34.077Z,71.00
2023-04-15T14:06:02.220Z,69.80
2023-04-15T14:08:30.183Z,68.20
2023-04-15T14:10:58.495Z,68.40
2023-04-15T14:13:26.069Z,67.80
2023-04-15T14:15:53.846Z,67.80
2023-04-15T14:18:22.162Z,67.00
2023-04-15T14:20:49.956Z,67.20
2023-04-15T14:23:18.055Z,67.00
2023-04-15T14:25:48.184Z,66.90
2023-04-15T14:28:18.119Z,67.90
2023-04-15T14:30:46.074Z,67.00
2023-04-15T14:33:14.430Z,67.50
2023-04-15T14:35:42.575Z,67.50
2023-04-15T14:38:11.529Z,67.60
2023-04-15T14:40:39.798Z,68.10
2023-04-15T14:43:07.659Z,68.20
2023-04-15T14:45:36.368Z,68.50
2023-04-15T14:48:06.791Z,68.10
2023-04-15T14:50:34.590Z,68.60
2023-04-15T14:53:02.992Z,69.00
2023-04-15T14:55:32.202Z,69.10
2023-04-15T14:57:59.818Z,69.00
2023-04-15T15:00:27.947Z,69.50
2023-04-15T15:02:56.182Z,69.10
2023-04-15T15:05:24.173Z,69.10
2023-04-15T15:07:52.533Z,69.50
2023-04-15T15:10:33.119Z,69.60
2023-04-15T15:13:08.921Z,70.30
2023-04-15T15:15:37.700Z,70.00
2023-04-15T15:18:05.364Z,70.00
2023-04-15T15:20:33.067Z,70.60
2023-04-15T15:23:01.700Z,70.60
2023-04-15T15:25:29.344Z,70.50
2023-04-15T15:27:57.004Z,70.10
2023-04-15T15:30:25.780Z,68.90
2023-04-15T15:32:53.725Z,67.90
2023-04-15T15:35:21.628Z,67.70
2023-04-15T15:37:49.559Z,67.90
2023-04-15T15:40:17.356Z,68.10
2023-04-15T15:42:45.149Z,67.90
2023-04-15T15:45:13.116Z,68.20
2023-04-15T15:47:40.784Z,67.80
2023-04-15T15:50:08.421Z,67.90
2023-04-15T15:52:37.189Z,68.10
2023-04-15T15:55:04.758Z,68.10
2023-04-15T15:57:32.782Z,68.40
2023-04-15T16:00:10.448Z,68.60
2023-04-15T16:05:10.096Z,69.30
2023-04-15T16:07:38.226Z,69.40
2023-04-15T16:10:05.834Z,69.60
2023-04-15T16:12:35.014Z,70.20
2023-04-15T16:15:02.855Z,70.20
2023-04-15T16:17:30.891Z,70.40
2023-04-15T16:20:00.872Z,70.80
2023-04-15T16:22:29.064Z,71.00
2023-04-15T16:24:56.885Z,71.50
2023-04-15T16:27:24.806Z,71.90
2023-04-15T16:29:52.480Z,72.20
2023-04-15T16:32:20.654Z,72.50
2023-04-15T16:34:48.972Z,72.30
2023-04-15T16:37:16.538Z,72.50
2023-04-15T16:39:44.181Z,73.10
2023-04-15T16:42:12.109Z,72.90
2023-04-15T16:44:39.694Z,73.30
2023-04-15T16:47:07.707Z,73.30
2023-04-15T16:49:36.801Z,73.30
2023-04-15T16:52:04.397Z,73.50
2023-04-15T16:54:32.753Z,73.40
2023-04-15T16:57:01.284Z,73.20
2023-04-15T16:59:28.902Z,73.60
2023-04-15T17:01:57.047Z,73.70
2023-04-15T17:04:25.339Z,73.60
2023-04-15T17:06:53.044Z,73.90
2023-04-15T17:09:20.816Z,74.20
2023-04-15T17:11:51.545Z,75.10
2023-04-15T17:14:19.274Z,74.20
2023-04-15T17:16:47.020Z,74.30
2023-04-15T17:19:15.099Z,74.10
2023-04-15T17:21:42.709Z,74.50
2023-04-15T17:24:10.432Z,74.30
2023-04-15T17:26:38.234Z,74.50
2023-04-15T17:29:06.290Z,74.60
2023-04-15T17:31:34.279Z,74.50
2023-04-15T17:34:09.635Z,74.40
2023-04-15T17:36:46.217Z,74.70
2023-04-15T17:39:33.677Z,74.90
2023-04-15T17:42:01.891Z,75.30
2023-04-15T17:44:29.483Z,75.20
2023-04-15T17:46:57.348Z,75.40
2023-04-15T17:49:25.311Z,75.40
2023-04-15T17:51:52.925Z,75.80
2023-04-15T17:54:20.726Z,75.40
2023-04-15T17:56:48.442Z,75.60
2023-04-15T17:59:16.136Z,75.50
2023-04-15T18:01:43.963Z,75.80
2023-04-15T18:04:11.815Z,76.00
2023-04-15T18:06:40.044Z,75.70
2023-04-15T18:09:07.699Z,76.30
2023-04-15T18:11:35.290Z,76.00
2023-04-15T18:14:03.227Z,76.00
2023-04-15T18:16:31.494Z,76.40
2023-04-15T18:19:00.983Z,76.30
2023-04-15T18:21:39.233Z,76.60
2023-04-15T18:24:07.042Z,76.90
2023-04-15T18:26:35.729Z,76.60
2023-04-15T18:29:03.577Z,77.10
2023-04-15T18:31:32.278Z,77.30
2023-04-15T18:33:59.893Z,77.30
2023-04-15T18:36:27.716Z,77.00
2023-04-15T18:38:55.446Z,77.10
2023-04-15T18:41:23.182Z,77.70
2023-04-15T18:43:50.812Z,76.90
2023-04-15T18:46:18.443Z,76.90
2023-04-15T18:48:46.362Z,76.60
2023-04-15T18:51:14.128Z,76.70
2023-04-15T18:53:41.727Z,76.40
2023-04-15T18:56:09.354Z,76.30
2023-04-15T18:59:25.980Z,76.50
2023-04-15T19:01:24.744Z,76.20
2023-04-15T19:03:53.384Z,76.60
2023-04-15T19:06:21.037Z,76.60
2023-04-15T19:08:48.818Z,76.50
2023-04-15T19:11:16.599Z,77.10
2023-04-15T19:13:44.280Z,76.50
2023-04-15T19:16:12.092Z,77.00
2023-04-15T19:18:39.783Z,76.90
2023-04-15T19:21:07.377Z,77.30
2023-04-15T19:23:46.416Z,77.20
2023-04-15T19:26:14.212Z,76.80
2023-04-15T19:28:42.307Z,76.90
2023-04-15T19:31:10.484Z,77.20
2023-04-15T19:33:38.836Z,77.40
2023-04-15T19:36:06.771Z,77.70
2023-04-15T19:38:34.668Z,77.40
2023-04-15T19:41:02.228Z,77.60
2023-04-15T19:43:30.003Z,77.60
2023-04-15T19:45:57.706Z,78.00
2023-04-15T19:48:25.336Z,78.20
2023-04-15T19:50:52.910Z,78.50
2023-04-15T19:53:20.641Z,79.30
2023-04-15T19:55:48.496Z,79.40
2023-04-15T19:58:16.071Z,79.00
2023-04-15T20:00:43.766Z,79.40
2023-04-15T20:03:11.498Z,79.80
2023-04-15T20:05:39.223Z,78.70
2023-04-15T20:08:07.009Z,78.70
2023-04-15T20:10:34.650Z,78.90
2023-04-15T20:13:02.214Z,79.40
2023-04-15T20:15:30.161Z,79.00
2023-04-15T20:17:58.245Z,79.20
2023-04-15T20:20:26.876Z,78.90
2023-04-15T20:22:55.288Z,79.30
2023-04-15T20:25:23.172Z,79.10
2023-04-15T20:27:51.134Z,79.30
2023-04-15T20:30:19.272Z,79.60
2023-04-15T20:32:47.325Z,80.00
2023-04-15T20:35:15.031Z,79.90
2023-04-15T20:37:42.884Z,80.20
2023-04-15T20:40:10.566Z,80.60
2023-04-15T20:42:39.632Z,80.70
2023-04-15T20:45:08.529Z,80.90
2023-04-15T20:47:37.897Z,81.10
2023-04-15T20:50:06.311Z,81.20
2023-04-15T20:52:38.679Z,81.60
2023-04-15T20:55:07.403Z,82.20
2023-04-15T20:57:35.182Z,82.40
2023-04-15T21:00:02.870Z,82.70
2023-04-15T21:02:30.725Z,83.00
2023-04-15T21:04:58.418Z,84.20
2023-04-15T21:07:26.188Z,85.40
2023-04-15T21:09:53.777Z,86.00
2023-04-15T21:12:21.337Z,86.40
2023-04-15T21:14:49.088Z,85.80
2023-04-15T21:17:16.644Z,85.60
2023-04-15T21:19:44.220Z,84.60
2023-04-15T21:22:11.854Z,83.80
2023-04-15T21:24:39.531Z,83.70
2023-04-15T21:27:07.156Z,83.50
2023-04-15T21:29:35.010Z,83.60
2023-04-15T21:32:02.790Z,84.20
2023-04-15T21:34:30.418Z,85.20
2023-04-15T21:36:58.337Z,84.60
2023-04-15T21:39:25.988Z,84.70
2023-04-15T21:41:53.596Z,84.60
2023-04-15T21:44:22.516Z,84.80
2023-04-15T21:46:50.835Z,85.50
2023-04-15T21:49:19.040Z,85.50
2023-04-15T21:51:47.297Z,84.90
2023-04-15T21:54:15.326Z,84.80
2023-04-15T21:56:43.110Z,85.00
2023-04-15T21:59:11.461Z,85.80
2023-04-15T22:01:40.964Z,85.70
2023-04-15T22:04:09.838Z,85.90
2023-04-15T22:06:37.787Z,86.00
2023-04-15T22:09:05.627Z,86.40
2023-04-15T22:11:36.012Z,87.00
2023-04-15T22:14:03.836Z,86.90
2023-04-15T22:16:32.286Z,86.50
2023-04-15T22:19:01.004Z,86.90
2023-04-15T22:21:28.871Z,86.40
2023-04-15T22:24:37.975Z,86.60
2023-04-15T22:26:45.747Z,87.00
2023-04-15T22:29:14.098Z,86.80
2023-04-15T22:31:42.680Z,86.90
2023-04-15T22:34:10.948Z,87.20
2023-04-15T22:36:40.085Z,87.50
2023-04-15T22:39:08.522Z,87.60
2023-04-15T22:41:37.293Z,87.80
2023-04-15T22:44:05.067Z,86.60
2023-04-15T22:46:35.321Z,86.40
2023-04-15T22:49:04.036Z,86.70
2023-04-15T22:51:33.956Z,87.00
2023-04-15T22:54:01.748Z,87.10
2023-04-15T22:56:30.740Z,86.80
2023-04-15T22:58:58.434Z,86.90
2023-04-15T23:01:27.572Z,87.60
2023-04-15T23:04:05.582Z,87.70
2023-04-15T23:06:37.924Z,87.80
2023-04-15T23:09:06.515Z,87.80
2023-04-15T23:11:37.230Z,87.90
2023-04-15T23:14:10.426Z,87.50
2023-04-15T23:16:38.965Z,87.90
2023-04-15T23:19:09.077Z,88.20
2023-04-15T23:21:38.226Z,87.70
2023-04-15T23:24:06.052Z,87.60
2023-04-15T23:26:36.533Z,87.40
2023-04-15T23:29:04.734Z,87.90
2023-04-15T23:31:37.148Z,88.10
2023-04-15T23:34:04.821Z,88.10
2023-04-15T23:36:36.767Z,87.90
2023-04-15T23:39:05.042Z,88.20
2023-04-15T23:41:32.833Z,88.30
2023-04-15T23:44:03.244Z,88.40
2023-04-15T23:46:31.207Z,88.50
2023-04-15T23:49:03.224Z,88.90
2023-04-15T23:51:32.123Z,89.40
2023-04-15T23:54:00.542Z,90.10
2023-04-15T23:56:28.819Z,89.80
2023-04-15T23:58:58.902Z,89.30
